Emmer-Compascuum, Netherlands
Current Conditions -  °F | °C
As of 3:20 PM on Friday 24 Oct 2014 (Local Time) from ETWM Reporting Station
NA  
Wind Chill: 57°   Ceiling: NA
Heat Index: 57°   Visibility: 6mi
Dew Point: 46°   Wind: 9mph
Humidity: 67%   Direction: 180°S
Pressure: 30.06"   Gusts: NA
Location:  52.81°N, 7.05°E
Report Text: ETWM 241320Z AUTO 18008KT 9999 // ////// 14/08 Q1018 ///
Loading
Personal Weather Stations






























Interactive Weather Map
Tropical Storm Tracking
New forecast layout! Learn more

10-Day Weather Forecast

Advertisements
Track Severe Weather on mobile